Time;durP1;ratioP1;P1;durP2;ratioP2;P2;SDS_P1;SDS_P2;PMS_P1;PMS_P2;Temp;Humidity;BMP_temperature;BMP_pressure;BME280_temperature;BME280_humidity;BME280_pressure;Samples;Min_cycle;Max_cycle;Signal;HPM_P1;HPM_P2
2024/03/10 00:02:06;;;;;;;1.92;1.10;;;17.50;58.80;;;;;;6246814;23;20149;-83
2024/03/10 00:04:32;;;;;;;1.25;1.08;;;17.50;59.20;;;;;;6247018;23;20141;-83
2024/03/10 00:06:58;;;;;;;1.02;0.90;;;17.40;59.40;;;;;;6221523;23;20149;-83
2024/03/10 00:09:24;;;;;;;1.20;1.08;;;17.40;59.30;;;;;;6246648;23;20122;-83
2024/03/10 00:11:51;;;;;;;1.10;1.00;;;17.50;59.20;;;;;;6246511;23;20131;-83
2024/03/10 00:14:19;;;;;;;1.50;1.08;;;17.40;59.80;;;;;;6246856;23;20216;-83
2024/03/10 00:16:45;;;;;;;1.20;1.02;;;17.40;59.10;;;;;;6221489;23;20197;-83
2024/03/10 00:19:11;;;;;;;1.02;0.93;;;17.40;59.20;;;;;;6220700;23;20152;-83
2024/03/10 00:21:38;;;;;;;1.05;0.90;;;17.40;59.30;;;;;;6246286;23;20122;-83
2024/03/10 00:24:07;;;;;;;1.23;1.10;;;17.30;59.20;;;;;;6220569;23;20208;-83
2024/03/10 00:26:34;;;;;;;1.33;1.15;;;17.30;59.20;;;;;;6221296;23;20224;-83
2024/03/10 00:29:00;;;;;;;2.13;1.33;;;17.30;59.30;;;;;;6221441;23;20160;-83
2024/03/10 00:31:30;;;;;;;1.17;0.98;;;17.40;59.10;;;;;;6246081;23;20555;-82
2024/03/10 00:33:58;;;;;;;1.20;1.10;;;17.40;59.20;;;;;;6221276;23;20142;-83
2024/03/10 00:36:24;;;;;;;1.95;1.20;;;17.40;59.00;;;;;;6219780;23;20283;-83
2024/03/10 00:38:51;;;;;;;1.60;1.13;;;17.30;59.10;;;;;;6218840;23;20172;-83
2024/03/10 00:41:20;;;;;;;1.52;1.13;;;17.40;58.90;;;;;;6219329;23;20156;-82
2024/03/10 00:43:46;;;;;;;1.55;1.20;;;17.30;58.90;;;;;;6219385;23;20187;-83
2024/03/10 00:46:13;;;;;;;1.10;1.00;;;17.30;59.20;;;;;;6244946;23;20173;-83
2024/03/10 00:48:41;;;;;;;1.23;0.90;;;17.30;59.10;;;;;;6219304;23;20141;-83
2024/03/10 00:51:07;;;;;;;1.13;0.88;;;17.40;59.10;;;;;;6219800;23;20153;-83
2024/03/10 00:53:39;;;;;;;1.10;1.00;;;17.30;59.00;;;;;;6244198;23;20450;-83
2024/03/10 00:56:09;;;;;;;1.20;0.82;;;17.30;59.30;;;;;;6219544;23;20160;-83
2024/03/10 00:58:39;;;;;;;2.20;1.15;;;17.40;59.20;;;;;;6244556;23;20461;-83
2024/03/10 01:01:05;;;;;;;1.15;1.05;;;17.30;59.10;;;;;;6219209;23;20192;-83
2024/03/10 01:03:31;;;;;;;1.13;1.02;;;17.30;59.20;;;;;;6219190;23;20177;-83
2024/03/10 01:05:57;;;;;;;1.20;1.10;;;17.30;59.20;;;;;;6219201;23;20160;-83
2024/03/10 01:08:23;;;;;;;1.83;1.08;;;17.30;59.10;;;;;;6245831;23;20150;-83
2024/03/10 01:10:49;;;;;;;1.55;1.10;;;17.30;59.20;;;;;;6220473;23;20156;-83
2024/03/10 01:13:15;;;;;;;1.70;1.15;;;17.30;59.20;;;;;;6246176;23;20158;-83
2024/03/10 01:15:41;;;;;;;1.25;1.15;;;17.30;59.00;;;;;;6220811;23;20177;-83
2024/03/10 01:18:07;;;;;;;1.25;1.08;;;17.40;59.00;;;;;;6220647;23;20247;-83
2024/03/10 01:20:37;;;;;;;1.63;1.20;;;17.30;59.00;;;;;;6220625;23;20484;-84
2024/03/10 01:23:06;;;;;;;1.38;1.10;;;17.30;59.00;;;;;;6194244;23;20192;-83
2024/03/10 01:25:32;;;;;;;1.23;1.13;;;17.30;58.90;;;;;;6220530;23;20476;-83
2024/03/10 01:28:08;;;;;;;1.25;1.10;;;17.30;58.90;;;;;;6245947;23;20126;-84
2024/03/10 01:30:34;;;;;;;1.60;1.10;;;17.30;59.00;;;;;;6194483;23;20173;-83
2024/03/10 01:33:00;;;;;;;1.17;1.00;;;17.30;58.90;;;;;;6245468;23;20133;-83
2024/03/10 01:35:27;;;;;;;1.08;0.80;;;17.30;58.90;;;;;;6220379;23;20141;-83
2024/03/10 01:37:55;;;;;;;2.42;1.20;;;17.20;59.00;;;;;;6220017;23;20207;-83
2024/03/10 01:40:21;;;;;;;1.40;1.20;;;17.30;59.00;;;;;;6220929;23;20145;-83
2024/03/10 01:42:55;;;;;;;1.70;1.30;;;17.30;59.00;;;;;;6246572;22;20165;-82
2024/03/10 01:45:23;;;;;;;1.95;1.10;;;17.30;59.10;;;;;;6219824;23;20149;-83
2024/03/10 01:47:51;;;;;;;1.60;1.20;;;17.30;59.10;;;;;;6220352;23;20306;-83
2024/03/10 01:50:17;;;;;;;1.40;1.08;;;17.30;58.90;;;;;;6220284;23;20157;-84
2024/03/10 01:52:44;;;;;;;1.80;1.25;;;17.30;58.90;;;;;;6245722;23;20145;-83
2024/03/10 01:55:11;;;;;;;0.95;0.90;;;17.30;58.90;;;;;;6220119;23;20141;-83
2024/03/10 01:57:43;;;;;;;1.20;1.10;;;17.20;59.10;;;;;;6220153;23;20204;-83
2024/03/10 02:00:10;;;;;;;1.30;1.17;;;17.20;59.00;;;;;;6219621;23;20672;-83
2024/03/10 02:02:36;;;;;;;1.92;1.10;;;17.20;58.80;;;;;;6245034;23;20165;-82
2024/03/10 02:05:02;;;;;;;1.27;1.10;;;17.20;59.00;;;;;;6220002;23;20156;-84
2024/03/10 02:07:28;;;;;;;1.65;1.10;;;17.20;58.90;;;;;;6219591;23;20152;-83
2024/03/10 02:09:55;;;;;;;1.70;1.20;;;17.20;58.90;;;;;;6245482;23;20130;-83
2024/03/10 02:12:20;;;;;;;1.30;1.20;;;17.30;59.10;;;;;;6245304;23;20184;-83
2024/03/10 02:15:03;;;;;;;1.52;1.13;;;17.20;58.50;;;;;;6245254;23;20137;-83
2024/03/10 02:17:28;;;;;;;1.30;1.15;;;17.30;58.50;;;;;;6219446;23;20287;-83
2024/03/10 02:19:58;;;;;;;1.52;1.27;;;17.30;58.30;;;;;;6220063;23;20195;-83
2024/03/10 02:22:27;;;;;;;1.63;1.00;;;17.30;58.50;;;;;;6220059;23;20173;-83
2024/03/10 02:24:59;;;;;;;1.42;1.30;;;17.30;58.70;;;;;;6245436;23;20133;-83
2024/03/10 02:27:44;;;;;;;1.40;1.30;;;17.20;58.50;;;;;;6193795;23;20169;-83
2024/03/10 02:30:19;;;;;;;1.65;1.05;;;17.20;58.70;;;;;;6222083;23;20149;-83
2024/03/10 02:48:53;;;;;;;1.27;1.10;;;17.20;58.90;;;;;;6146172;23;20169;-83
2024/03/10 02:51:23;;;;;;;1.35;1.00;;;17.10;58.80;;;;;;6115700;23;20164;-83
2024/03/10 02:53:49;;;;;;;2.05;1.50;;;17.20;58.60;;;;;;6163252;23;20154;-83
2024/03/10 02:56:15;;;;;;;1.02;0.90;;;17.20;58.40;;;;;;6163302;23;20208;-83
2024/03/10 02:58:41;;;;;;;1.42;1.30;;;17.20;58.70;;;;;;6163273;23;20241;-83
2024/03/10 03:01:10;;;;;;;1.25;1.15;;;17.20;58.60;;;;;;6163383;23;20153;-83
2024/03/10 03:03:36;;;;;;;1.92;1.35;;;17.20;58.60;;;;;;6188767;23;20161;-84
2024/03/10 03:06:02;;;;;;;1.27;1.17;;;17.20;58.60;;;;;;6177956;23;20149;-83
2024/03/10 03:08:28;;;;;;;1.45;1.10;;;17.20;58.90;;;;;;6245423;23;20208;-83
2024/03/10 03:10:54;;;;;;;1.10;1.00;;;17.20;58.60;;;;;;6220259;23;20223;-83
2024/03/10 03:13:20;;;;;;;1.20;1.10;;;17.20;58.50;;;;;;6220079;23;20207;-83
2024/03/10 03:15:46;;;;;;;1.30;1.17;;;17.20;58.50;;;;;;6245380;23;20504;-84
2024/03/10 03:18:15;;;;;;;2.08;1.30;;;17.20;58.40;;;;;;6239388;23;20529;-83
2024/03/10 03:20:41;;;;;;;1.45;1.20;;;17.20;58.70;;;;;;6195301;23;20466;-83
2024/03/10 03:23:10;;;;;;;1.63;1.00;;;17.20;58.60;;;;;;6220000;23;20177;-83
2024/03/10 03:25:35;;;;;;;1.35;1.13;;;17.20;58.70;;;;;;6219885;23;20149;-84
2024/03/10 03:28:02;;;;;;;1.75;1.40;;;17.20;58.50;;;;;;6219478;23;20576;-83
2024/03/10 03:30:28;;;;;;;1.20;1.10;;;17.20;58.60;;;;;;6195062;23;20146;-83
2024/03/10 03:32:59;;;;;;;1.27;1.17;;;17.20;58.40;;;;;;6220091;23;20187;-84
2024/03/10 03:35:26;;;;;;;1.20;1.10;;;17.20;58.50;;;;;;6195829;23;20149;-84
2024/03/10 03:37:56;;;;;;;1.58;1.42;;;17.20;58.60;;;;;;6219522;23;20128;-83
2024/03/10 03:40:26;;;;;;;2.33;1.15;;;17.20;58.50;;;;;;6194741;23;20572;-84
2024/03/10 03:42:56;;;;;;;1.45;1.05;;;17.20;58.30;;;;;;6219218;23;20218;-84
2024/03/10 03:45:28;;;;;;;1.63;1.33;;;17.20;58.50;;;;;;6219648;23;20142;-83
2024/03/10 03:47:56;;;;;;;1.45;1.35;;;17.20;58.50;;;;;;6169470;23;20153;-84
2024/03/10 03:50:26;;;;;;;1.38;1.27;;;17.20;58.60;;;;;;6194878;23;20468;-83
2024/03/10 03:52:53;;;;;;;1.88;1.30;;;17.20;58.70;;;;;;6195658;23;20241;-83
2024/03/10 03:55:22;;;;;;;1.25;1.15;;;17.10;58.50;;;;;;6168371;23;20203;-83
2024/03/10 03:57:52;;;;;;;1.63;1.20;;;17.20;58.50;;;;;;6195235;23;20142;-83
2024/03/10 04:00:18;;;;;;;1.38;1.27;;;17.10;58.30;;;;;;6220766;23;20165;-83
2024/03/10 04:02:46;;;;;;;1.40;1.30;;;17.10;58.50;;;;;;6194479;23;20190;-83
2024/03/10 04:05:13;;;;;;;1.10;1.00;;;17.10;58.50;;;;;;6195833;23;20221;-83
2024/03/10 04:07:41;;;;;;;1.63;1.13;;;17.10;58.80;;;;;;6197119;23;20184;-83
2024/03/10 04:10:09;;;;;;;1.48;1.20;;;17.10;58.50;;;;;;6221706;23;20141;-83
2024/03/10 04:12:36;;;;;;;1.33;1.10;;;17.20;57.80;;;;;;6197627;23;20130;-83
2024/03/10 04:15:04;;;;;;;2.08;1.02;;;17.20;58.00;;;;;;6196230;23;20191;-83
2024/03/10 04:17:31;;;;;;;1.63;1.50;;;17.20;58.20;;;;;;6190015;23;20208;-84
2024/03/10 04:20:00;;;;;;;1.52;1.23;;;17.10;58.40;;;;;;6166145;23;20146;-83
2024/03/10 04:22:25;;;;;;;1.40;1.30;;;17.10;58.20;;;;;;6166243;23;20264;-83
2024/03/10 04:24:55;;;;;;;1.73;1.35;;;17.20;58.20;;;;;;6165357;23;20174;-83
2024/03/10 04:27:20;;;;;;;1.42;1.33;;;17.20;58.30;;;;;;6165197;23;20158;-83
2024/03/10 04:29:49;;;;;;;1.30;1.20;;;17.10;58.30;;;;;;6166658;23;20130;-83
2024/03/10 04:32:15;;;;;;;1.42;1.10;;;17.10;58.40;;;;;;6189924;23;20164;-83
2024/03/10 04:34:41;;;;;;;1.58;1.30;;;17.10;58.20;;;;;;6165511;23;20154;-83
2024/03/10 04:37:08;;;;;;;1.30;1.20;;;17.10;58.30;;;;;;6190180;23;20146;-83
2024/03/10 04:39:35;;;;;;;1.63;1.13;;;17.10;58.20;;;;;;6165315;23;20154;-83
2024/03/10 04:42:01;;;;;;;1.52;1.30;;;17.10;58.40;;;;;;6190159;23;20610;-83
2024/03/10 04:44:36;;;;;;;2.88;1.50;;;17.10;58.10;;;;;;6190395;23;20148;-83
2024/03/10 04:47:03;;;;;;;1.50;1.35;;;17.10;58.10;;;;;;6142467;23;20156;-83
2024/03/10 04:49:29;;;;;;;1.33;1.08;;;17.20;58.10;;;;;;6213632;23;20157;-83
2024/03/10 04:51:55;;;;;;;1.27;1.17;;;17.10;58.90;;;;;;6191320;23;20181;-83
2024/03/10 04:54:21;;;;;;;1.20;1.10;;;17.10;58.20;;;;;;6191147;23;20166;-83
2024/03/10 04:56:47;;;;;;;1.50;1.33;;;17.20;58.10;;;;;;6216154;23;20154;-83
2024/03/10 04:59:25;;;;;;;1.40;1.30;;;17.10;58.30;;;;;;6184838;23;20205;-83
2024/03/10 05:01:55;;;;;;;1.55;1.30;;;17.20;58.40;;;;;;6154956;23;20197;-82
2024/03/10 05:04:23;;;;;;;1.23;1.10;;;17.20;58.30;;;;;;6158953;23;20221;-82
2024/03/10 05:06:51;;;;;;;1.73;1.45;;;17.20;58.20;;;;;;6159108;23;20143;-83
2024/03/10 05:09:19;;;;;;;1.63;1.35;;;17.10;58.10;;;;;;6109093;23;20641;-83
2024/03/10 05:11:49;;;;;;;1.40;1.30;;;17.10;58.20;;;;;;6158440;23;20138;-83
2024/03/10 05:14:17;;;;;;;1.90;1.33;;;17.10;58.30;;;;;;6159678;23;20158;-84
2024/03/10 05:16:43;;;;;;;1.85;1.52;;;17.10;58.20;;;;;;6134202;23;20190;-83
2024/03/10 05:19:14;;;;;;;1.58;1.27;;;17.10;58.10;;;;;;6159154;23;20170;-83
2024/03/10 05:21:46;;;;;;;1.67;1.20;;;17.10;58.20;;;;;;6159889;23;20151;-83
2024/03/10 05:24:13;;;;;;;1.65;1.35;;;17.10;58.10;;;;;;6110193;23;20278;-83
2024/03/10 05:26:42;;;;;;;1.42;1.20;;;17.10;58.10;;;;;;6159193;23;20265;-83
2024/03/10 05:29:11;;;;;;;1.90;1.48;;;17.10;58.20;;;;;;6111883;23;20232;-83
2024/03/10 05:31:43;;;;;;;1.98;1.20;;;17.10;58.00;;;;;;6190622;23;20322;-83
2024/03/10 05:34:10;;;;;;;2.00;1.40;;;17.10;58.30;;;;;;6166350;23;20204;-84
2024/03/10 05:36:36;;;;;;;1.48;1.38;;;17.10;58.20;;;;;;6190509;23;20149;-84
2024/03/10 05:39:04;;;;;;;2.17;1.35;;;17.10;58.00;;;;;;6215018;23;20135;-83
2024/03/10 05:41:33;;;;;;;1.50;1.40;;;17.20;58.00;;;;;;6134374;23;20155;-83
2024/03/10 05:44:06;;;;;;;2.58;1.40;;;17.20;58.00;;;;;;6134282;23;20182;-83
2024/03/10 05:46:33;;;;;;;2.28;1.58;;;17.10;57.90;;;;;;6095379;23;20220;-83
2024/03/10 05:49:02;;;;;;;2.00;1.42;;;17.10;57.90;;;;;;6047866;23;20156;-83
2024/03/10 05:51:29;;;;;;;2.17;1.48;;;17.20;58.00;;;;;;6071346;23;20145;-83
2024/03/10 05:54:00;;;;;;;2.42;1.60;;;17.10;58.00;;;;;;6046928;23;20257;-83
2024/03/10 05:56:33;;;;;;;1.75;1.30;;;17.10;58.00;;;;;;6023726;23;20196;-83
2024/03/10 05:59:05;;;;;;;1.67;1.13;;;17.10;58.00;;;;;;6024412;23;20190;-83
2024/03/10 06:01:36;;;;;;;2.20;1.70;;;17.20;58.10;;;;;;6047777;23;20164;-83
2024/03/10 06:04:03;;;;;;;1.50;1.25;;;17.20;58.10;;;;;;6070771;23;20177;-83
2024/03/10 06:06:32;;;;;;;1.30;1.20;;;17.10;58.00;;;;;;6018725;23;20165;-83
2024/03/10 06:08:57;;;;;;;2.95;1.25;;;17.10;58.00;;;;;;6042692;23;20157;-83
2024/03/10 06:11:42;;;;;;;1.85;1.60;;;17.10;58.70;;;;;;6042329;23;20154;-83
2024/03/10 06:14:11;;;;;;;1.50;1.40;;;17.10;58.20;;;;;;6071523;23;20596;-83
2024/03/10 06:16:37;;;;;;;1.50;1.30;;;17.10;58.00;;;;;;6049279;23;20223;-84
2024/03/10 06:27:02;;;;;;;1.63;1.40;;;17.00;58.10;;;;;;6075660;23;20547;-83
2024/03/10 06:29:28;;;;;;;1.40;1.30;;;17.10;58.10;;;;;;6048401;23;20156;-83
2024/03/10 06:31:55;;;;;;;1.98;1.50;;;17.10;58.00;;;;;;6072196;23;20235;-83
2024/03/10 06:34:22;;;;;;;1.88;1.50;;;17.10;57.80;;;;;;6072282;23;20623;-83
2024/03/10 06:36:48;;;;;;;2.03;1.20;;;17.00;57.80;;;;;;6077056;23;20580;-84
2024/03/10 06:39:20;;;;;;;1.30;1.20;;;17.10;58.10;;;;;;6167636;23;20180;-83
2024/03/10 06:41:46;;;;;;;1.50;1.38;;;17.10;57.90;;;;;;6077220;23;20181;-84
2024/03/10 06:44:17;;;;;;;1.70;1.50;;;17.10;57.70;;;;;;6099964;23;20184;-84
2024/03/10 06:46:43;;;;;;;2.00;1.48;;;17.10;57.90;;;;;;6076275;23;20152;-83
2024/03/10 06:49:10;;;;;;;1.58;1.48;;;17.10;57.80;;;;;;6076218;23;20177;-83
2024/03/10 06:51:38;;;;;;;2.00;1.60;;;17.10;57.90;;;;;;6076881;23;20152;-83
2024/03/10 06:54:03;;;;;;;1.50;1.40;;;17.00;57.90;;;;;;6075325;23;20156;-84
2024/03/10 06:56:29;;;;;;;1.42;1.33;;;17.20;58.10;;;;;;6075733;23;20285;-84
2024/03/10 06:58:57;;;;;;;1.38;1.20;;;17.20;57.80;;;;;;6099857;23;20144;-84
2024/03/10 07:01:22;;;;;;;1.77;1.33;;;17.20;57.80;;;;;;6051635;23;20889;-84
2024/03/10 07:03:48;;;;;;;1.38;1.20;;;17.10;57.60;;;;;;6075762;23;20215;-84
2024/03/10 07:06:21;;;;;;;1.40;1.30;;;17.10;57.80;;;;;;6075741;23;20227;-84
2024/03/10 07:08:48;;;;;;;1.40;1.30;;;17.10;57.90;;;;;;6053608;23;20183;-84
2024/03/10 07:11:15;;;;;;;1.75;1.40;;;17.20;57.80;;;;;;6100322;23;20565;-84
2024/03/10 07:13:40;;;;;;;1.75;1.50;;;17.10;57.70;;;;;;6158232;23;20161;-84
2024/03/10 07:16:07;;;;;;;1.48;1.30;;;17.10;57.60;;;;;;6164566;23;20184;-84
2024/03/10 07:18:35;;;;;;;2.17;1.50;;;17.10;57.50;;;;;;6160573;23;20201;-84
2024/03/10 07:21:02;;;;;;;1.80;1.40;;;17.10;57.70;;;;;;6215173;23;20637;-84
2024/03/10 07:23:28;;;;;;;2.60;1.35;;;17.10;57.60;;;;;;6215863;23;20618;-84
2024/03/10 07:25:55;;;;;;;1.65;1.55;;;17.10;57.10;;;;;;6164536;23;20142;-84
2024/03/10 07:28:21;;;;;;;1.42;1.33;;;17.20;57.10;;;;;;6214594;23;20133;-84
2024/03/10 07:30:48;;;;;;;1.75;1.65;;;17.20;57.20;;;;;;6214811;23;20146;-84
2024/03/10 07:33:13;;;;;;;1.65;1.40;;;17.20;57.50;;;;;;6216009;23;20139;-84
2024/03/10 07:35:40;;;;;;;1.83;1.33;;;17.20;57.50;;;;;;6189878;23;20595;-84
2024/03/10 07:38:12;;;;;;;1.55;1.45;;;17.10;57.50;;;;;;6164907;23;20146;-84
2024/03/10 07:40:42;;;;;;;1.92;1.52;;;17.20;57.10;;;;;;6141291;23;20153;-84
2024/03/10 07:43:10;;;;;;;2.50;1.60;;;17.10;57.40;;;;;;6190360;23;20497;-84
2024/03/10 07:45:39;;;;;;;1.98;1.70;;;17.10;57.10;;;;;;6165548;23;20154;-84
2024/03/10 07:48:05;;;;;;;1.83;1.58;;;17.10;57.00;;;;;;6190467;23;20150;-84
2024/03/10 07:50:31;;;;;;;1.40;1.20;;;17.20;56.70;;;;;;6167035;23;20470;-84
2024/03/10 07:52:59;;;;;;;3.38;1.67;;;17.30;56.70;;;;;;6216082;23;20146;-84
2024/03/10 07:55:30;;;;;;;1.65;1.38;;;17.20;56.90;;;;;;6167916;23;20154;-83
2024/03/10 07:57:58;;;;;;;1.88;1.60;;;17.20;57.20;;;;;;6167225;23;20155;-83
2024/03/10 08:00:25;;;;;;;1.73;1.35;;;17.20;57.10;;;;;;6107417;23;20152;-86
2024/03/10 08:03:11;;;;;;;2.05;1.80;;;17.30;56.90;;;;;;6025466;23;20192;-85
2024/03/10 08:05:39;;;;;;;2.78;1.40;;;17.30;56.70;;;;;;5995545;23;20625;-85
2024/03/10 08:08:15;;;;;;;1.85;1.70;;;17.40;56.70;;;;;;5996076;23;20151;-85
2024/03/10 08:11:22;;;;;;;2.80;1.50;;;17.40;56.40;;;;;;5969970;23;20179;-84
2024/03/10 08:13:50;;;;;;;3.72;1.50;;;17.50;56.10;;;;;;5916514;24;20243;-86
2024/03/10 08:16:48;;;;;;;5.13;1.30;;;17.60;55.90;;;;;;5910363;24;20168;-84
2024/03/10 08:19:49;;;;;;;;;;;;;;;;;;;;;
2024/03/10 08:22:59;;;;;;;;;;;;;;;;;;;;;
2024/03/10 08:26:29;;;;;;;5.68;1.95;;;17.60;56.10;;;;;;5754554;24;20172;-85
2024/03/10 08:29:40;;;;;;;13.65;1.98;;;17.60;56.20;;;;;;5775977;24;20175;-87
2024/03/10 08:32:37;;;;;;;;;;;;;;;;;;;;;
2024/03/10 08:35:54;;;;;;;;;;;;;;;;;;;;;
2024/03/10 08:38:56;;;;;;;7.20;1.83;;;17.70;55.70;;;;;;5781363;24;20307;-87
2024/03/10 08:41:34;;;;;;;7.40;1.80;;;17.70;55.60;;;;;;5806494;24;20245;-84
2024/03/10 08:47:32;;;;;;;6.80;1.80;;;17.80;56.10;;;;;;5866425;24;20158;-83
2024/03/10 08:50:20;;;;;;;5.00;1.70;;;17.80;55.50;;;;;;5790635;24;20168;-83
2024/03/10 08:53:25;;;;;;;10.23;1.80;;;17.80;55.80;;;;;;5848153;24;20183;-83
2024/03/10 08:59:39;;;;;;;10.20;1.50;;;17.90;55.60;;;;;;5820260;24;20817;-82
2024/03/10 09:02:08;;;;;;;11.25;2.17;;;18.00;55.40;;;;;;5810180;24;20662;-82
2024/03/10 09:04:37;;;;;;;8.88;2.05;;;18.00;55.70;;;;;;5768161;24;20173;-84
2024/03/10 09:07:43;;;;;;;11.10;1.80;;;18.00;55.80;;;;;;5816493;24;20213;-86
2024/03/10 09:10:10;;;;;;;10.23;1.98;;;18.00;54.70;;;;;;5825394;24;20174;-85
2024/03/10 09:12:58;;;;;;;8.73;1.70;;;18.10;54.70;;;;;;5823097;24;20171;-84
2024/03/10 09:15:47;;;;;;;9.65;2.05;;;18.10;54.20;;;;;;5799101;24;20160;-85
2024/03/10 09:18:44;;;;;;;7.57;1.80;;;18.20;54.80;;;;;;5768189;24;20247;-84
2024/03/10 09:21:57;;;;;;;;;;;;;;;;;;;;;
2024/03/10 09:24:48;;;;;;;7.15;1.77;;;18.10;54.50;;;;;;5747618;24;20262;-83
2024/03/10 09:27:43;;;;;;;10.07;1.60;;;18.20;54.40;;;;;;5786840;24;20241;-84
2024/03/10 09:31:14;;;;;;;;;;;;;;;;;;;;;
2024/03/10 09:33:44;;;;;;;7.68;1.48;;;18.20;55.00;;;;;;5738937;24;20300;-83
2024/03/10 09:36:36;;;;;;;7.60;1.70;;;18.10;55.10;;;;;;5685177;25;20170;-83
2024/03/10 09:40:08;;;;;;;12.48;1.52;;;18.10;55.10;;;;;;5689150;25;20197;-85
2024/03/10 09:42:37;;;;;;;4.90;1.90;;;18.20;54.60;;;;;;5713758;25;20494;-82
2024/03/10 09:45:47;;;;;;;7.80;1.60;;;18.10;55.30;;;;;;5719568;25;20249;-85
2024/03/10 09:49:06;;;;;;;;;;;;;;;;;;;;;
2024/03/10 09:55:06;;;;;;;8.35;1.70;;;18.20;55.00;;;;;;5783714;24;20169;-86
2024/03/10 09:58:10;;;;;;;;;;;;;;;;;;;;;
2024/03/10 10:00:58;;;;;;;7.97;1.92;;;18.30;55.40;;;;;;5812649;24;20331;-86
2024/03/10 10:04:25;;;;;;;10.05;1.85;;;18.20;56.00;;;;;;5792384;24;20187;-84
2024/03/10 10:18:15;;;;;;;7.47;1.48;;;18.20;55.20;;;;;;5729661;24;20273;-84
2024/03/10 10:23:57;;;;;;;11.05;2.05;;;18.10;56.10;;;;;;5759923;24;20210;-84
2024/03/10 10:26:34;;;;;;;10.93;2.05;;;18.10;56.20;;;;;;5743417;24;20294;-83
2024/03/10 10:29:09;;;;;;;10.05;2.03;;;18.10;55.00;;;;;;5668705;25;20165;-83
2024/03/10 10:31:43;;;;;;;7.57;2.10;;;18.20;55.50;;;;;;5703249;24;20177;-83
2024/03/10 10:34:20;;;;;;;11.70;1.60;;;18.20;53.30;;;;;;5735157;24;20172;-83
2024/03/10 10:36:55;;;;;;;8.30;1.73;;;18.30;53.70;;;;;;5698266;25;20165;-84
2024/03/10 10:39:33;;;;;;;9.18;2.28;;;18.30;54.60;;;;;;5696929;25;20239;-81
2024/03/10 10:42:04;;;;;;;4.18;1.60;;;18.40;54.30;;;;;;5720127;24;20169;-83
2024/03/10 10:44:58;;;;;;;4.50;1.50;;;18.40;53.70;;;;;;5871211;24;20240;-84
2024/03/10 10:47:35;;;;;;;8.98;1.90;;;18.40;53.90;;;;;;5903107;24;20653;-84
2024/03/10 10:50:42;;;;;;;4.88;1.98;;;18.30;54.80;;;;;;6040083;23;20151;-83
2024/03/10 10:52:50;;;;;;;13.35;1.88;;;18.30;55.70;;;;;;6113406;23;20198;-83
2024/03/10 10:55:17;;;;;;;5.22;1.48;;;18.20;55.90;;;;;;6124913;23;20227;-83
2024/03/10 10:57:44;;;;;;;8.68;1.70;;;18.20;56.20;;;;;;6099857;23;20148;-83
2024/03/10 11:00:25;;;;;;;8.27;1.60;;;18.10;56.30;;;;;;6124198;23;20623;-84
2024/03/10 11:03:05;;;;;;;8.77;1.80;;;18.20;56.20;;;;;;6100150;23;20183;-84
2024/03/10 11:05:30;;;;;;;7.85;2.10;;;18.20;56.40;;;;;;6137496;23;20371;-83
2024/03/10 11:07:57;;;;;;;8.38;1.77;;;18.20;56.40;;;;;;6157636;23;20178;-83
2024/03/10 11:10:39;;;;;;;8.60;1.75;;;18.20;56.80;;;;;;6132678;23;20249;-85
2024/03/10 11:13:11;;;;;;;18.48;1.95;;;18.20;56.30;;;;;;6182534;23;20162;-83
2024/03/10 11:15:37;;;;;;;8.38;1.73;;;18.20;56.80;;;;;;6157995;23;20170;-82
2024/03/10 11:18:26;;;;;;;12.50;1.85;;;18.20;56.50;;;;;;6240041;23;20188;-83
2024/03/10 11:20:55;;;;;;;15.40;1.88;;;18.20;57.00;;;;;;6168050;23;20168;-84
2024/03/10 11:23:40;;;;;;;13.52;1.90;;;18.20;56.90;;;;;;6212042;23;20197;-83
2024/03/10 11:26:15;;;;;;;16.67;2.08;;;18.30;56.70;;;;;;6187372;23;20142;-84
2024/03/10 11:29:09;;;;;;;12.55;1.67;;;18.30;56.40;;;;;;6188409;23;20138;-84
2024/03/10 11:31:44;;;;;;;8.13;1.40;;;18.40;56.20;;;;;;6153205;23;20253;-84
2024/03/10 11:41:11;;;;;;;7.75;1.73;;;18.20;56.70;;;;;;5844095;24;20201;-83
2024/03/10 11:44:37;;;;;;;9.45;1.92;;;18.30;57.40;;;;;;5820506;24;20205;-84
2024/03/10 11:48:03;;;;;;;10.50;1.50;;;18.30;56.90;;;;;;5712179;25;20239;-83
2024/03/10 12:12:38;;;;;;;4.70;1.58;;;18.20;57.00;;;;;;5567314;25;20189;-82
2024/03/10 12:16:08;;;;;;;;;;;;;;;;;;;;;
2024/03/10 12:22:58;;;;;;;9.90;1.30;;;18.10;56.40;;;;;;5612072;25;20184;-81
2024/03/10 12:25:44;;;;;;;4.10;1.60;;;18.10;57.50;;;;;;5680717;25;20183;-83
2024/03/10 12:32:23;;;;;;;7.70;1.42;;;18.00;57.50;;;;;;5730310;25;20167;-82
2024/03/10 13:07:01;;;;;;;5.28;1.50;;;18.10;58.10;;;;;;5741654;24;20306;-82
2024/03/10 13:21:13;;;;;;;3.22;1.20;;;18.10;58.40;;;;;;5898282;24;20201;-82
2024/03/10 13:28:06;;;;;;;7.30;1.48;;;18.10;57.30;;;;;;5871471;24;20207;-82
2024/03/10 13:38:39;;;;;;;8.27;1.20;;;18.20;57.70;;;;;;5928417;24;20221;-83
2024/03/10 13:41:33;;;;;;;4.80;1.42;;;18.20;58.00;;;;;;5884118;24;20160;-83
2024/03/10 13:44:10;;;;;;;3.80;1.40;;;18.20;57.90;;;;;;5927104;24;20722;-83
2024/03/10 13:53:51;;;;;;;4.07;1.35;;;18.20;57.90;;;;;;5909570;24;20180;-82
2024/03/10 13:56:53;;;;;;;3.15;1.20;;;18.20;56.50;;;;;;5987174;23;20192;-84
2024/03/10 13:59:40;;;;;;;3.72;1.30;;;18.20;57.20;;;;;;5937145;24;20159;-82
2024/03/10 14:02:36;;;;;;;2.83;1.20;;;18.20;57.20;;;;;;5917886;24;20151;-84
2024/03/10 14:06:50;;;;;;;;;;;;;;;;;;;;;
2024/03/10 14:16:10;;;;;;;3.88;1.35;;;18.20;57.80;;;;;;5845905;24;20174;-83
2024/03/10 14:19:29;;;;;;;4.28;1.20;;;18.30;57.00;;;;;;5817017;24;20281;-82
2024/03/10 14:42:50;;;;;;;3.95;1.15;;;18.30;57.30;;;;;;5670584;25;20214;-82
2024/03/10 14:45:59;;;;;;;8.68;1.33;;;18.30;57.70;;;;;;5692999;25;20214;-85
2024/03/10 14:49:17;;;;;;;4.32;1.13;;;18.20;57.30;;;;;;5710313;25;20166;-83
2024/03/10 14:52:54;;;;;;;5.70;1.20;;;18.20;57.70;;;;;;5732075;24;20166;-83
2024/03/10 14:56:07;;;;;;;5.60;1.60;;;18.20;57.60;;;;;;5690280;25;20209;-83
2024/03/10 14:58:37;;;;;;;6.80;1.70;;;18.20;58.60;;;;;;5647646;25;20177;-83
2024/03/10 15:01:22;;;;;;;4.07;2.03;;;18.20;59.10;;;;;;5689934;25;20170;-83
2024/03/10 15:07:32;;;;;;;5.85;1.23;;;18.10;58.70;;;;;;5690320;25;20166;-83
2024/03/10 15:10:42;;;;;;;6.07;1.90;;;18.20;57.10;;;;;;5647605;25;20161;-84
2024/03/10 15:19:34;;;;;;;6.07;1.23;;;18.20;58.90;;;;;;5676548;25;20332;-83
2024/03/10 15:22:26;;;;;;;3.95;1.30;;;18.20;58.10;;;;;;5661951;25;20182;-83
2024/03/10 15:25:14;;;;;;;6.43;1.30;;;18.20;56.70;;;;;;5620928;25;20183;-83
2024/03/10 15:28:15;;;;;;;7.85;1.38;;;18.20;57.80;;;;;;5667504;25;20170;-83
2024/03/10 15:31:03;;;;;;;6.95;1.33;;;18.30;57.40;;;;;;5643932;25;20222;-83
2024/03/10 15:34:31;;;;;;;;;;;;;;;;;;;;;
2024/03/10 15:41:10;;;;;;;7.22;1.60;;;18.30;56.90;;;;;;5669527;25;20199;-84
2024/03/10 15:44:09;;;;;;;6.22;1.30;;;18.40;57.50;;;;;;5665646;25;20255;-84
2024/03/10 15:47:47;;;;;;;;;;;;;;;;;;;;;
2024/03/10 15:50:35;;;;;;;7.82;1.13;;;18.30;58.30;;;;;;5518988;25;20246;-83
2024/03/10 15:53:26;;;;;;;10.40;1.50;;;18.30;57.80;;;;;;5552923;25;20166;-84
2024/03/10 15:56:45;;;;;;;6.78;1.48;;;18.20;57.60;;;;;;5574916;25;20174;-83
2024/03/10 16:00:38;;;;;;;8.50;1.48;;;18.30;58.00;;;;;;5577356;25;20180;-83
2024/03/10 16:03:35;;;;;;;5.70;1.35;;;18.20;57.70;;;;;;5618204;25;20196;-83
2024/03/10 16:17:10;;;;;;;9.45;1.50;;;18.30;57.40;;;;;;5577079;25;20209;-84
2024/03/10 16:20:14;;;;;;;7.88;1.70;;;18.30;57.60;;;;;;5692506;25;20169;-83
2024/03/10 16:23:07;;;;;;;11.90;1.40;;;18.40;57.00;;;;;;5692256;25;20206;-84
2024/03/10 16:25:39;;;;;;;9.05;1.52;;;18.30;57.80;;;;;;5709874;25;20170;-83
2024/03/10 16:28:29;;;;;;;8.57;1.45;;;18.40;57.80;;;;;;5694075;25;20477;-84
2024/03/10 16:30:56;;;;;;;4.50;1.30;;;18.30;57.60;;;;;;5731948;24;20181;-83
2024/03/10 16:33:22;;;;;;;8.30;1.42;;;18.30;56.70;;;;;;5692434;25;20202;-82
2024/03/10 16:36:27;;;;;;;6.18;1.52;;;18.30;57.80;;;;;;5692510;25;20167;-82
2024/03/10 16:38:57;;;;;;;6.20;1.10;;;18.30;57.40;;;;;;5741883;24;20173;-83
2024/03/10 16:41:37;;;;;;;;;;;;;;;;;;;;;
2024/03/10 16:44:38;;;;;;;9.13;1.80;;;18.40;58.80;;;;;;5958654;23;20260;-83
2024/03/10 16:47:05;;;;;;;10.40;1.33;;;18.30;59.30;;;;;;6020879;23;20171;-82
2024/03/10 16:49:33;;;;;;;8.02;1.40;;;18.40;59.30;;;;;;6021861;23;20241;-82
2024/03/10 16:52:10;;;;;;;12.13;1.65;;;18.40;58.20;;;;;;6044128;23;20236;-83
2024/03/10 16:54:50;;;;;;;7.38;1.90;;;18.40;58.10;;;;;;6067755;23;20142;-83
2024/03/10 16:58:34;;;;;;;5.50;1.50;;;18.30;57.60;;;;;;6024932;23;20153;-84
2024/03/10 17:01:22;;;;;;;4.97;1.27;;;18.40;58.60;;;;;;5956034;24;20259;-83
2024/03/10 17:04:22;;;;;;;5.00;1.23;;;18.40;57.40;;;;;;5914682;24;20272;-82
2024/03/10 17:06:54;;;;;;;4.15;1.00;;;18.40;58.20;;;;;;5956378;24;20160;-84
2024/03/10 17:09:31;;;;;;;8.48;1.40;;;18.40;58.90;;;;;;5900647;24;20158;-84
2024/03/10 17:12:03;;;;;;;6.78;1.38;;;18.30;58.20;;;;;;5892043;24;20169;-84
2024/03/10 17:18:07;;;;;;;4.47;1.30;;;18.40;56.40;;;;;;5819869;24;20266;-84